Time;durP1;ratioP1;P1;durP2;ratioP2;P2;SDS_P1;SDS_P2;PMS_P1;PMS_P2;Temp;Humidity;BMP_temperature;BMP_pressure;BME280_temperature;BME280_humidity;BME280_pressure;Samples;Min_cycle;Max_cycle;Signal;HPM_P1;HPM_P2
2023/06/20 00:02:54;;;;;;;9.23;7.05;;;23.40;97.90;;;;;;6199450;28;20547;-81
2023/06/20 00:05:56;;;;;;;7.53;6.93;;;23.40;98.30;;;;;;6209803;28;20108;-79
2023/06/20 00:08:57;;;;;;;8.23;7.43;;;23.30;98.70;;;;;;6215333;28;20058;-81
2023/06/20 00:12:00;;;;;;;10.02;8.95;;;23.30;99.00;;;;;;6215999;28;20497;-81
2023/06/20 00:15:02;;;;;;;11.40;7.47;;;23.20;99.30;;;;;;6216602;28;20565;-79
2023/06/20 00:18:04;;;;;;;9.55;8.55;;;23.20;99.50;;;;;;6216486;28;20072;-81
2023/06/20 00:21:06;;;;;;;12.13;8.00;;;23.30;99.70;;;;;;6203160;28;20078;-79
2023/06/20 00:24:09;;;;;;;8.35;7.63;;;23.30;99.90;;;;;;6198805;28;20482;-80
2023/06/20 00:27:12;;;;;;;16.27;9.90;;;23.10;99.90;;;;;;6199651;28;20057;-78
2023/06/20 00:30:15;;;;;;;14.95;10.55;;;22.60;99.90;;;;;;6198252;28;20157;-78
2023/06/20 00:33:19;;;;;;;13.65;10.63;;;22.10;99.90;;;;;;6198585;28;20504;-78
2023/06/20 00:36:25;;;;;;;13.82;12.38;;;21.70;99.90;;;;;;6200208;28;20057;-80
2023/06/20 00:39:26;;;;;;;16.58;12.80;;;21.30;99.90;;;;;;6199038;28;20129;-77
2023/06/20 00:42:30;;;;;;;18.52;13.77;;;21.00;99.90;;;;;;6198007;28;20053;-78
2023/06/20 00:45:33;;;;;;;20.58;15.93;;;20.90;99.90;;;;;;6196522;28;20046;-78
2023/06/20 00:48:35;;;;;;;15.63;14.02;;;20.80;99.90;;;;;;6196636;28;20120;-79
2023/06/20 00:51:37;;;;;;;19.65;16.13;;;20.70;99.90;;;;;;6196253;28;20064;-78
2023/06/20 00:54:39;;;;;;;25.50;17.38;;;20.60;99.90;;;;;;6195835;28;20053;-78
2023/06/20 00:57:45;;;;;;;20.00;18.02;;;20.50;99.90;;;;;;6196111;28;20050;-79
2023/06/20 01:00:47;;;;;;;18.33;16.38;;;20.40;99.90;;;;;;6196748;28;20046;-80
2023/06/20 01:03:50;;;;;;;20.70;18.52;;;20.30;99.90;;;;;;6198801;28;20050;-78
2023/06/20 01:07:00;;;;;;;24.45;19.25;;;20.30;99.90;;;;;;6195737;28;20541;-78
2023/06/20 01:10:09;;;;;;;21.48;19.15;;;20.40;99.90;;;;;;6195634;28;20050;-78
2023/06/20 01:13:24;;;;;;;26.25;19.58;;;20.40;99.90;;;;;;6195762;28;20422;-79
2023/06/20 01:16:34;;;;;;;21.27;18.73;;;20.40;99.90;;;;;;6196893;28;20046;-79
2023/06/20 01:20:07;;;;;;;23.88;20.20;;;20.50;99.90;;;;;;6198899;28;20134;-79
2023/06/20 01:23:14;;;;;;;25.05;19.98;;;20.40;99.90;;;;;;6200540;28;20125;-79
2023/06/20 01:26:21;;;;;;;23.95;20.10;;;20.40;99.90;;;;;;6201407;28;20084;-79
2023/06/20 01:29:32;;;;;;;24.00;21.40;;;20.50;99.90;;;;;;6201989;28;20046;-81
2023/06/20 01:32:38;;;;;;;27.30;20.52;;;20.50;99.90;;;;;;6202411;28;20053;-79
2023/06/20 01:35:41;;;;;;;25.27;21.52;;;20.50;99.90;;;;;;6200947;28;20046;-78
2023/06/20 01:38:46;;;;;;;31.10;22.33;;;20.50;99.90;;;;;;6200092;28;20061;-79
2023/06/20 01:41:50;;;;;;;33.22;24.73;;;20.50;99.90;;;;;;6200919;28;20038;-80
2023/06/20 01:44:53;;;;;;;25.50;22.00;;;20.50;99.90;;;;;;6213743;28;20054;-79
2023/06/20 01:47:57;;;;;;;25.50;22.25;;;20.50;99.90;;;;;;6219160;28;20042;-78
2023/06/20 01:51:00;;;;;;;29.23;22.48;;;20.50;99.90;;;;;;6219462;28;20052;-77
2023/06/20 01:54:05;;;;;;;28.60;22.92;;;20.50;99.90;;;;;;6218743;28;20038;-78
2023/06/20 01:57:08;;;;;;;26.25;22.45;;;20.40;99.90;;;;;;6219655;28;20046;-79
2023/06/20 02:00:11;;;;;;;29.05;22.00;;;20.40;99.90;;;;;;6220026;28;20058;-78
2023/06/20 02:03:16;;;;;;;30.00;22.65;;;20.40;99.90;;;;;;6217756;28;20046;-78
2023/06/20 02:06:21;;;;;;;31.52;22.95;;;20.30;99.90;;;;;;6215743;28;20535;-78
2023/06/20 02:09:25;;;;;;;29.85;23.48;;;20.30;99.90;;;;;;6218343;28;20389;-79
2023/06/20 02:12:28;;;;;;;29.38;24.05;;;20.30;99.90;;;;;;6219661;28;20032;-79
2023/06/20 02:15:31;;;;;;;29.90;22.42;;;20.30;99.90;;;;;;6217726;28;20046;-80
2023/06/20 02:18:33;;;;;;;28.05;22.48;;;20.30;99.90;;;;;;6206685;28;20398;-80
2023/06/20 02:21:41;;;;;;;36.05;25.00;;;20.20;99.90;;;;;;6204222;28;20173;-81
2023/06/20 02:24:44;;;;;;;;;;;20.20;99.90;;;;;;6206133;28;20061;-78
2023/06/20 02:27:49;;;;;;;35.45;24.55;;;20.10;99.90;;;;;;6204878;28;19922;-81
2023/06/20 02:30:54;;;;;;;39.15;26.70;;;20.20;99.90;;;;;;6203313;28;20046;-82
2023/06/20 02:33:59;;;;;;;44.67;27.70;;;20.10;99.90;;;;;;6200405;28;20050;-79
2023/06/20 02:37:04;;;;;;;39.20;25.35;;;20.10;99.90;;;;;;6200703;28;20061;-77
2023/06/20 02:40:09;;;;;;;38.55;29.10;;;20.10;99.90;;;;;;6199577;28;20042;-80
2023/06/20 02:43:10;;;;;;;36.83;27.55;;;20.20;99.90;;;;;;6198823;28;20051;-79
2023/06/20 02:46:20;;;;;;;39.38;27.38;;;20.20;99.90;;;;;;6202374;28;20046;-80
2023/06/20 02:49:29;;;;;;;31.98;25.67;;;20.20;99.90;;;;;;6203728;28;20053;-80
2023/06/20 02:52:40;;;;;;;33.17;23.52;;;20.20;99.90;;;;;;6205151;28;20118;-81
2023/06/20 02:55:46;;;;;;;32.58;25.95;;;20.10;99.90;;;;;;6204595;28;20053;-80
2023/06/20 02:58:53;;;;;;;30.70;24.23;;;20.10;99.90;;;;;;6203347;28;20049;-80
2023/06/20 03:01:58;;;;;;;29.80;22.58;;;20.00;99.90;;;;;;6204911;28;20050;-81
2023/06/20 03:05:04;;;;;;;26.63;22.50;;;20.00;99.90;;;;;;6212709;28;20065;-78
2023/06/20 03:08:07;;;;;;;31.00;23.75;;;19.90;99.90;;;;;;6214770;28;20116;-79
2023/06/20 03:11:10;;;;;;;36.72;24.98;;;19.90;99.90;;;;;;6214453;28;20050;-79
2023/06/20 03:14:13;;;;;;;27.13;20.48;;;19.90;99.90;;;;;;6215454;28;20352;-78
2023/06/20 03:17:15;;;;;;;30.33;24.63;;;19.80;99.90;;;;;;6215720;28;20577;-79
2023/06/20 03:20:17;;;;;;;28.25;23.70;;;19.80;99.90;;;;;;6212781;28;20046;-81
2023/06/20 03:23:19;;;;;;;34.42;25.77;;;19.70;99.90;;;;;;6204608;28;20050;-82
2023/06/20 03:26:22;;;;;;;36.67;24.08;;;19.70;99.90;;;;;;6204941;28;20046;-81
2023/06/20 03:29:23;;;;;;;34.15;25.52;;;19.70;99.90;;;;;;6204583;28;20042;-79
2023/06/20 03:32:25;;;;;;;32.30;25.90;;;19.70;99.90;;;;;;6205830;28;20062;-81
2023/06/20 03:35:27;;;;;;;34.55;26.48;;;19.70;99.90;;;;;;6205500;28;20046;-81
2023/06/20 03:38:29;;;;;;;33.63;24.58;;;19.60;99.90;;;;;;6204242;28;20050;-81
2023/06/20 03:41:32;;;;;;;28.20;22.73;;;19.60;99.90;;;;;;6205247;28;20042;-81
2023/06/20 03:44:33;;;;;;;25.83;23.05;;;19.50;99.90;;;;;;6205945;28;20062;-82
2023/06/20 03:47:35;;;;;;;34.60;25.25;;;19.50;99.90;;;;;;6203675;28;20050;-81
2023/06/20 03:50:37;;;;;;;31.55;22.23;;;19.50;99.90;;;;;;6204458;28;20066;-81
2023/06/20 03:53:38;;;;;;;34.15;21.88;;;19.50;99.90;;;;;;6204276;28;20053;-80
2023/06/20 03:56:41;;;;;;;27.83;23.13;;;19.50;99.90;;;;;;6205592;28;20168;-81
2023/06/20 03:59:43;;;;;;;30.55;23.13;;;19.30;99.90;;;;;;6204885;28;20138;-79
2023/06/20 04:02:46;;;;;;;32.55;25.83;;;19.40;99.90;;;;;;6205162;28;20043;-78
2023/06/20 04:05:47;;;;;;;29.65;24.00;;;19.40;99.90;;;;;;6197495;28;20042;-78
2023/06/20 04:08:49;;;;;;;32.55;25.63;;;19.40;99.90;;;;;;6197186;28;20046;-79
2023/06/20 04:11:52;;;;;;;26.38;23.42;;;19.40;99.90;;;;;;6196971;28;20117;-78
2023/06/20 04:14:54;;;;;;;28.33;21.83;;;19.50;99.90;;;;;;6196234;28;20053;-78
2023/06/20 04:17:56;;;;;;;26.20;22.27;;;19.60;99.90;;;;;;6196501;28;20413;-79
2023/06/20 04:20:58;;;;;;;22.27;20.20;;;20.00;99.90;;;;;;6197008;28;20058;-79
2023/06/20 04:23:59;;;;;;;19.65;17.75;;;20.50;99.90;;;;;;6197106;28;20046;-78
2023/06/20 04:27:03;;;;;;;19.00;17.30;;;21.00;99.90;;;;;;6200522;28;20057;-79
2023/06/20 04:30:06;;;;;;;16.50;14.90;;;21.40;99.90;;;;;;6199669;28;20057;-78
2023/06/20 04:33:07;;;;;;;15.30;13.88;;;21.60;99.90;;;;;;6199473;28;20057;-78
2023/06/20 04:36:12;;;;;;;14.68;12.85;;;21.90;99.90;;;;;;6201127;28;20060;-79
2023/06/20 04:39:14;;;;;;;12.65;11.55;;;22.40;99.90;;;;;;6200416;28;20050;-78
2023/06/20 04:42:17;;;;;;;12.88;11.50;;;23.00;99.90;;;;;;6200178;28;20038;-79
2023/06/20 04:45:19;;;;;;;13.05;11.68;;;23.60;99.90;;;;;;6200210;28;20056;-78
2023/06/20 04:48:21;;;;;;;12.60;10.90;;;24.20;99.90;;;;;;6200833;28;20066;-79
2023/06/20 04:51:23;;;;;;;12.95;11.65;;;24.70;99.90;;;;;;6200311;28;20047;-78
2023/06/20 04:54:25;;;;;;;10.43;9.52;;;25.20;99.90;;;;;;6198572;28;20557;-76
2023/06/20 04:57:28;;;;;;;13.38;10.77;;;25.50;99.90;;;;;;6195611;28;20054;-80
2023/06/20 05:00:29;;;;;;;10.35;9.27;;;26.00;99.90;;;;;;6196984;28;20046;-79
2023/06/20 05:03:31;;;;;;;10.00;9.02;;;26.50;99.90;;;;;;6195842;28;20046;-80
2023/06/20 05:06:33;;;;;;;13.10;10.68;;;27.00;99.90;;;;;;6196087;28;20057;-79
2023/06/20 05:09:34;;;;;;;10.25;9.40;;;27.50;99.90;;;;;;6195837;28;20046;-78
2023/06/20 05:12:37;;;;;;;10.48;9.57;;;27.70;99.90;;;;;;6198640;28;20351;-79
2023/06/20 05:15:39;;;;;;;10.82;9.85;;;27.70;99.90;;;;;;6196434;28;20053;-78
2023/06/20 05:18:41;;;;;;;9.90;9.10;;;27.60;99.90;;;;;;6196972;28;20050;-78
2023/06/20 05:21:43;;;;;;;10.68;9.68;;;27.40;99.90;;;;;;6197125;28;20054;-79
2023/06/20 05:24:46;;;;;;;11.65;10.55;;;27.80;99.90;;;;;;6196737;28;20050;-79
2023/06/20 05:27:50;;;;;;;10.25;9.38;;;27.80;99.90;;;;;;6195959;28;20050;-80
2023/06/20 05:30:51;;;;;;;11.65;9.20;;;28.00;99.90;;;;;;6196531;28;20046;-80
2023/06/20 05:33:54;;;;;;;9.60;8.63;;;28.80;99.90;;;;;;6196920;28;20455;-79
2023/06/20 05:36:55;;;;;;;9.77;8.98;;;29.70;99.90;;;;;;6197078;28;20053;-80
2023/06/20 05:39:57;;;;;;;10.18;9.13;;;30.50;98.60;;;;;;6196530;28;20054;-80
2023/06/20 05:43:00;;;;;;;9.80;8.82;;;31.00;96.70;;;;;;6195488;28;20370;-79
2023/06/20 05:46:02;;;;;;;10.10;9.05;;;31.60;95.00;;;;;;6196096;28;20116;-79
2023/06/20 05:49:03;;;;;;;8.40;7.60;;;32.20;93.50;;;;;;6196034;28;20571;-80
2023/06/20 05:52:06;;;;;;;11.40;8.65;;;32.50;91.90;;;;;;6196934;28;20557;-79
2023/06/20 05:55:09;;;;;;;9.27;8.38;;;32.90;90.40;;;;;;6196754;28;20053;-78
2023/06/20 05:58:12;;;;;;;10.23;9.32;;;32.80;87.30;;;;;;6196245;28;20141;-80
2023/06/20 06:01:14;;;;;;;9.38;8.55;;;32.60;86.70;;;;;;6196136;28;20051;-80
2023/06/20 06:04:16;;;;;;;10.63;9.65;;;32.90;85.80;;;;;;6196010;28;20066;-78
2023/06/20 06:07:17;;;;;;;10.27;9.30;;;33.10;83.80;;;;;;6200082;28;20053;-78
2023/06/20 06:10:19;;;;;;;9.50;8.38;;;33.20;82.20;;;;;;6200200;28;20046;-79
2023/06/20 06:13:22;;;;;;;9.93;8.77;;;33.80;80.80;;;;;;6200756;28;20050;-79
2023/06/20 06:16:24;;;;;;;10.65;9.15;;;34.00;78.50;;;;;;6129230;28;20126;-78
2023/06/20 06:19:25;;;;;;;8.65;7.95;;;33.90;77.30;;;;;;6185394;28;20061;-83
2023/06/20 06:22:27;;;;;;;10.95;9.85;;;34.00;76.70;;;;;;6169625;28;20520;-75
2023/06/20 06:25:29;;;;;;;9.88;8.98;;;33.70;76.10;;;;;;6177354;28;20069;-75
2023/06/20 06:28:32;;;;;;;10.65;9.75;;;33.60;76.20;;;;;;6172406;28;20387;-78
2023/06/20 06:31:37;;;;;;;10.30;9.40;;;32.70;75.70;;;;;;6174511;28;20375;-78
2023/06/20 06:34:41;;;;;;;9.70;8.75;;;31.40;78.20;;;;;;6175451;28;20413;-79
2023/06/20 06:37:43;;;;;;;10.57;9.55;;;30.40;80.50;;;;;;6175198;28;20792;-78
2023/06/20 06:40:45;;;;;;;11.48;10.27;;;29.60;82.60;;;;;;6175631;28;20391;-78
2023/06/20 06:43:48;;;;;;;11.25;10.30;;;28.80;84.90;;;;;;6174859;28;20039;-78
2023/06/20 06:46:50;;;;;;;11.38;10.38;;;28.40;87.00;;;;;;6175105;28;20047;-78
2023/06/20 06:49:51;;;;;;;11.38;10.27;;;28.00;88.20;;;;;;6174934;28;20122;-78
2023/06/20 06:52:54;;;;;;;12.38;11.27;;;27.50;90.20;;;;;;6175076;28;20153;-77
2023/06/20 06:55:55;;;;;;;11.55;10.45;;;27.20;91.20;;;;;;6174708;28;20050;-77
2023/06/20 06:59:00;;;;;;;11.73;10.73;;;27.10;92.10;;;;;;6168976;28;20054;-78
2023/06/20 07:02:02;;;;;;;13.13;11.82;;;27.00;92.60;;;;;;6170320;28;20101;-77
2023/06/20 07:05:05;;;;;;;13.40;12.07;;;26.80;92.50;;;;;;6168469;28;20062;-76
2023/06/20 07:08:07;;;;;;;13.63;12.30;;;26.50;93.10;;;;;;6170949;28;20070;-78
2023/06/20 07:11:08;;;;;;;11.50;10.50;;;26.30;93.90;;;;;;6169936;28;20398;-77
2023/06/20 07:14:11;;;;;;;11.90;10.70;;;26.30;94.90;;;;;;6168041;28;20055;-78
2023/06/20 07:17:13;;;;;;;12.82;11.32;;;26.40;95.30;;;;;;6170309;28;20062;-77
2023/06/20 07:20:17;;;;;;;10.43;9.52;;;26.20;95.40;;;;;;6166733;28;20055;-78
2023/06/20 07:23:18;;;;;;;10.48;9.50;;;26.00;95.60;;;;;;6168307;28;21766;-76
2023/06/20 07:26:20;;;;;;;11.90;10.75;;;26.10;96.50;;;;;;6170207;28;20062;-77
2023/06/20 07:29:24;;;;;;;11.07;10.05;;;26.30;96.50;;;;;;6168998;28;20042;-77
2023/06/20 07:32:25;;;;;;;10.35;9.45;;;26.40;96.40;;;;;;6166530;28;20047;-77
2023/06/20 07:35:27;;;;;;;12.80;11.70;;;26.60;96.60;;;;;;6169632;28;20061;-76
2023/06/20 07:38:29;;;;;;;9.90;9.10;;;26.80;96.20;;;;;;6167874;28;20047;-77
2023/06/20 07:41:31;;;;;;;12.15;11.15;;;26.80;96.50;;;;;;6172113;28;20384;-77
2023/06/20 07:44:34;;;;;;;12.18;11.07;;;26.80;96.60;;;;;;6168985;28;20470;-77
2023/06/20 07:47:35;;;;;;;10.65;9.73;;;26.80;96.80;;;;;;6189316;28;20047;-76
2023/06/20 07:50:37;;;;;;;12.18;11.18;;;27.10;96.70;;;;;;6188329;28;20042;-76
2023/06/20 07:53:39;;;;;;;12.82;9.35;;;27.20;96.30;;;;;;6199829;28;20430;-76
2023/06/20 07:56:41;;;;;;;11.82;10.73;;;27.30;96.20;;;;;;6191709;28;20413;-77
2023/06/20 07:59:44;;;;;;;11.13;10.02;;;27.50;96.40;;;;;;6190308;28;20045;-77
2023/06/20 08:02:46;;;;;;;10.45;9.27;;;27.60;96.40;;;;;;6192485;28;20061;-78
2023/06/20 08:05:48;;;;;;;10.65;9.60;;;27.80;96.10;;;;;;6193008;28;20046;-76
2023/06/20 08:08:50;;;;;;;11.88;10.77;;;27.70;95.90;;;;;;6184522;28;20060;-77
2023/06/20 08:11:52;;;;;;;12.10;9.50;;;27.70;96.10;;;;;;6185546;28;20526;-76
2023/06/20 08:14:55;;;;;;;10.45;9.50;;;27.70;95.60;;;;;;6186087;28;20046;-77
2023/06/20 08:17:56;;;;;;;11.70;9.45;;;27.80;95.20;;;;;;6188483;28;20051;-77
2023/06/20 08:20:58;;;;;;;10.98;10.07;;;27.70;94.90;;;;;;6191796;28;20069;-77
2023/06/20 08:24:00;;;;;;;9.55;8.75;;;27.70;94.60;;;;;;6184890;28;20053;-77
2023/06/20 08:27:03;;;;;;;11.63;10.02;;;27.80;94.20;;;;;;6186838;28;20049;-78
2023/06/20 08:30:08;;;;;;;10.65;9.65;;;28.00;94.10;;;;;;6186603;28;20042;-78
2023/06/20 08:33:09;;;;;;;9.30;8.45;;;28.30;93.70;;;;;;6183970;28;20074;-77
2023/06/20 08:36:11;;;;;;;11.82;10.73;;;28.40;93.10;;;;;;6185082;28;20055;-77
2023/06/20 08:39:13;;;;;;;15.30;10.00;;;28.10;92.70;;;;;;6183588;28;20082;-75
2023/06/20 08:42:15;;;;;;;11.20;10.10;;;28.10;92.60;;;;;;6184464;28;20050;-77
2023/06/20 08:45:20;;;;;;;10.60;9.60;;;28.20;92.30;;;;;;6189268;28;20133;-77
2023/06/20 08:48:22;;;;;;;10.20;9.30;;;28.10;92.00;;;;;;6188788;28;20129;-77
2023/06/20 08:51:26;;;;;;;11.60;8.40;;;28.30;92.00;;;;;;6187195;28;20582;-76
2023/06/20 08:54:31;;;;;;;9.95;8.95;;;28.50;91.70;;;;;;6186098;28;20065;-76
2023/06/20 08:57:32;;;;;;;9.68;8.88;;;28.80;90.80;;;;;;6185317;28;20058;-75
2023/06/20 09:00:37;;;;;;;9.05;8.15;;;28.80;90.20;;;;;;6185803;28;20054;-75
2023/06/20 09:03:38;;;;;;;8.82;8.02;;;28.70;89.70;;;;;;6186124;28;20043;-77
2023/06/20 09:06:40;;;;;;;9.85;8.93;;;28.90;89.60;;;;;;6185606;28;20046;-76
2023/06/20 09:09:42;;;;;;;10.35;7.97;;;29.40;89.10;;;;;;6181357;28;20042;-77
2023/06/20 09:12:46;;;;;;;11.35;7.78;;;29.70;87.20;;;;;;6183998;28;20058;-77
2023/06/20 09:15:49;;;;;;;8.35;7.45;;;30.00;85.80;;;;;;6197132;28;20058;-77
2023/06/20 09:18:51;;;;;;;9.00;8.02;;;30.20;84.80;;;;;;6194832;28;20042;-76
2023/06/20 09:22:03;;;;;;;10.38;8.50;;;30.60;84.40;;;;;;6196164;28;20129;-76
2023/06/20 09:25:05;;;;;;;8.55;7.72;;;30.90;83.80;;;;;;6193869;28;20064;-76
2023/06/20 09:28:15;;;;;;;9.57;8.48;;;31.10;82.80;;;;;;6189186;28;20042;-78
2023/06/20 09:31:19;;;;;;;9.73;8.57;;;31.20;80.50;;;;;;6190415;28;20069;-77
2023/06/20 09:34:22;;;;;;;8.70;7.80;;;31.40;79.80;;;;;;6190597;28;20118;-76
2023/06/20 09:37:24;;;;;;;8.23;7.45;;;31.50;79.10;;;;;;6189463;28;20046;-77
2023/06/20 09:40:25;;;;;;;11.80;8.35;;;31.60;77.90;;;;;;6184474;28;20517;-77
2023/06/20 09:43:28;;;;;;;12.20;8.65;;;31.60;77.00;;;;;;6192440;28;20517;-78
2023/06/20 09:46:31;;;;;;;10.23;8.32;;;31.60;75.20;;;;;;6194672;28;20494;-76
2023/06/20 09:49:35;;;;;;;10.68;7.53;;;31.60;74.70;;;;;;6192154;28;20053;-77
2023/06/20 09:52:40;;;;;;;8.82;8.02;;;31.80;74.10;;;;;;6186333;28;20050;-77
2023/06/20 09:55:42;;;;;;;11.82;8.68;;;32.00;73.00;;;;;;6196325;28;20046;-78
2023/06/20 09:58:45;;;;;;;9.90;8.60;;;32.20;72.00;;;;;;6173498;28;20119;-77
2023/06/20 10:01:50;;;;;;;9.35;8.35;;;32.10;70.80;;;;;;6163578;28;20051;-76
2023/06/20 10:04:53;;;;;;;8.48;7.70;;;31.90;70.50;;;;;;6162714;28;20051;-76
2023/06/20 10:07:57;;;;;;;8.38;7.50;;;31.90;69.70;;;;;;6159474;28;20047;-77
2023/06/20 10:10:59;;;;;;;12.23;7.85;;;31.90;70.00;;;;;;6163611;28;20486;-79
2023/06/20 10:14:02;;;;;;;11.48;8.20;;;32.10;69.20;;;;;;6170863;28;20141;-77
2023/06/20 10:17:08;;;;;;;13.88;8.13;;;32.40;68.40;;;;;;6187179;28;20050;-76
2023/06/20 10:20:25;;;;;;;7.43;6.82;;;32.70;67.50;;;;;;6191281;28;20049;-77
2023/06/20 10:23:30;;;;;;;6.97;6.38;;;33.00;66.50;;;;;;6189453;28;20058;-76
2023/06/20 10:26:33;;;;;;;7.95;6.57;;;33.20;65.90;;;;;;6189268;28;20056;-77
2023/06/20 10:29:40;;;;;;;8.48;7.45;;;33.20;65.30;;;;;;6181912;28;20046;-77
2023/06/20 10:33:08;;;;;;;8.55;7.85;;;33.40;65.60;;;;;;6188573;28;20062;-76
2023/06/20 10:36:11;;;;;;;8.02;6.90;;;33.70;64.90;;;;;;6188893;28;20042;-77
2023/06/20 10:39:16;;;;;;;11.82;7.65;;;34.00;63.40;;;;;;6187792;28;20061;-77
2023/06/20 10:42:38;;;;;;;7.80;6.32;;;34.00;62.70;;;;;;6185600;28;20502;-76
2023/06/20 10:45:52;;;;;;;12.77;7.70;;;34.10;62.80;;;;;;6186877;28;20062;-76
2023/06/20 10:48:56;;;;;;;7.22;6.63;;;34.30;62.00;;;;;;6184486;28;20133;-76
2023/06/20 10:51:57;;;;;;;6.82;6.20;;;34.40;61.10;;;;;;6183134;28;20059;-77
2023/06/20 10:55:00;;;;;;;7.97;7.18;;;34.40;60.30;;;;;;6183635;28;20050;-76
2023/06/20 10:58:02;;;;;;;8.32;6.95;;;34.40;60.20;;;;;;6189138;28;20050;-77
2023/06/20 11:01:03;;;;;;;7.93;6.70;;;34.60;60.00;;;;;;6188173;28;20078;-76
2023/06/20 11:04:08;;;;;;;6.93;6.03;;;34.70;58.90;;;;;;6191870;28;20077;-77
2023/06/20 11:07:10;;;;;;;8.20;7.53;;;34.90;58.70;;;;;;6185951;28;20395;-76
2023/06/20 11:10:16;;;;;;;7.15;6.55;;;35.00;58.00;;;;;;6186648;28;20061;-76
2023/06/20 11:13:17;;;;;;;7.10;6.47;;;35.20;57.40;;;;;;6187670;28;20062;-76
2023/06/20 11:16:20;;;;;;;11.80;6.88;;;35.40;57.50;;;;;;6190911;28;20050;-77
2023/06/20 11:19:23;;;;;;;7.78;7.07;;;35.50;56.60;;;;;;6185487;28;20042;-77
2023/06/20 11:22:26;;;;;;;6.78;6.18;;;35.50;55.60;;;;;;6189625;28;20090;-77
2023/06/20 11:25:29;;;;;;;7.78;7.13;;;35.50;55.70;;;;;;6193810;28;20050;-78
2023/06/20 11:28:32;;;;;;;6.97;6.38;;;35.60;56.10;;;;;;6188445;28;20106;-77
2023/06/20 11:31:34;;;;;;;7.22;5.90;;;35.70;55.20;;;;;;6188292;28;21621;-77
2023/06/20 11:34:53;;;;;;;6.60;5.93;;;35.80;54.60;;;;;;6188841;28;20042;-77
2023/06/20 11:37:54;;;;;;;6.85;6.15;;;35.70;54.60;;;;;;6190893;28;20058;-77
2023/06/20 11:41:03;;;;;;;7.00;5.63;;;35.70;53.60;;;;;;6192648;28;20062;-77
2023/06/20 11:44:05;;;;;;;8.27;6.40;;;36.00;52.80;;;;;;6193478;28;21303;-78
2023/06/20 11:47:07;;;;;;;8.70;5.75;;;36.30;52.60;;;;;;6194425;28;20401;-79
2023/06/20 11:50:23;;;;;;;9.70;6.50;;;36.30;51.70;;;;;;6196687;28;20061;-79
2023/06/20 11:53:28;;;;;;;7.22;5.78;;;36.40;51.30;;;;;;6192706;28;20046;-77
2023/06/20 11:56:30;;;;;;;8.82;6.75;;;36.40;51.70;;;;;;6191309;28;20406;-78
2023/06/20 11:59:32;;;;;;;9.23;6.47;;;36.60;51.50;;;;;;6191757;28;20042;-79
2023/06/20 12:02:38;;;;;;;6.53;5.78;;;36.90;51.40;;;;;;6194712;28;20069;-78
2023/06/20 12:05:41;;;;;;;11.43;6.07;;;37.20;50.70;;;;;;6189652;28;20050;-78
2023/06/20 12:08:53;;;;;;;9.23;6.07;;;37.40;50.80;;;;;;6191870;28;20448;-77
2023/06/20 12:11:56;;;;;;;7.25;6.55;;;37.60;50.00;;;;;;6191246;28;20498;-78
2023/06/20 12:14:57;;;;;;;6.25;5.65;;;37.90;49.70;;;;;;6189205;28;20359;-78
2023/06/20 12:17:59;;;;;;;10.95;7.00;;;38.20;49.10;;;;;;6190858;28;20054;-77
2023/06/20 12:21:02;;;;;;;8.85;5.53;;;38.20;48.30;;;;;;6189460;28;20046;-77
2023/06/20 12:24:04;;;;;;;6.93;6.22;;;38.30;47.80;;;;;;6187957;28;20124;-78
2023/06/20 12:27:07;;;;;;;6.50;6.00;;;38.20;47.50;;;;;;6189974;28;20068;-81
2023/06/20 12:30:09;;;;;;;9.85;6.47;;;38.00;47.60;;;;;;6189746;28;20049;-77
2023/06/20 12:33:11;;;;;;;5.95;5.35;;;38.10;47.60;;;;;;6188295;28;20057;-79
2023/06/20 12:36:15;;;;;;;12.10;6.15;;;38.10;47.00;;;;;;6184741;28;20046;-77
2023/06/20 12:39:17;;;;;;;7.97;6.00;;;38.20;47.10;;;;;;6184211;28;20548;-77
2023/06/20 12:42:19;;;;;;;7.55;6.38;;;38.50;46.90;;;;;;6192113;28;20113;-78
2023/06/20 12:45:21;;;;;;;8.70;6.32;;;38.80;45.90;;;;;;6189760;28;20042;-78
2023/06/20 12:48:23;;;;;;;11.25;7.15;;;38.90;45.10;;;;;;6194340;28;20384;-77
2023/06/20 12:51:26;;;;;;;7.82;6.25;;;38.60;44.70;;;;;;6193152;28;20050;-77
2023/06/20 12:54:27;;;;;;;7.65;6.82;;;37.90;44.90;;;;;;6193026;28;20062;-77
2023/06/20 12:57:29;;;;;;;6.65;6.05;;;37.40;45.60;;;;;;6190550;28;20042;-78
2023/06/20 13:00:32;;;;;;;7.18;6.30;;;37.20;46.40;;;;;;6186816;28;20055;-77
2023/06/20 13:03:34;;;;;;;8.68;6.43;;;37.10;46.10;;;;;;6185599;28;20046;-77
2023/06/20 13:06:37;;;;;;;7.50;6.45;;;37.00;45.80;;;;;;6191340;28;20070;-77
2023/06/20 13:09:39;;;;;;;7.53;6.72;;;37.20;46.00;;;;;;6188240;28;20429;-77
2023/06/20 13:12:41;;;;;;;7.35;6.22;;;37.20;45.80;;;;;;6187282;28;20058;-78
2023/06/20 13:15:42;;;;;;;7.85;7.05;;;37.20;45.60;;;;;;6183051;28;20754;-77
2023/06/20 13:18:45;;;;;;;10.57;6.85;;;37.20;45.00;;;;;;6191075;28;20054;-78
2023/06/20 13:21:49;;;;;;;9.18;6.97;;;37.30;45.00;;;;;;6187522;28;20608;-77
2023/06/20 13:24:51;;;;;;;8.43;5.75;;;37.50;45.50;;;;;;6190732;28;20056;-78
2023/06/20 13:27:54;;;;;;;9.02;6.22;;;38.00;44.30;;;;;;6189826;28;20060;-78
2023/06/20 13:30:56;;;;;;;7.93;5.55;;;38.30;43.40;;;;;;6189169;28;20125;-77
2023/06/20 13:33:58;;;;;;;7.00;5.65;;;38.30;43.00;;;;;;6190896;28;20062;-78
2023/06/20 13:37:01;;;;;;;7.00;6.32;;;38.40;42.00;;;;;;6196533;28;20059;-78
2023/06/20 13:40:07;;;;;;;6.88;5.65;;;38.60;42.30;;;;;;6195070;28;20062;-79
2023/06/20 13:43:09;;;;;;;10.00;5.22;;;38.90;42.20;;;;;;6189583;28;20157;-80
2023/06/20 13:46:11;;;;;;;10.38;6.53;;;38.30;41.30;;;;;;6194085;28;20049;-79
2023/06/20 13:49:12;;;;;;;16.85;5.20;;;37.60;43.10;;;;;;6184763;28;20059;-78
2023/06/20 13:52:16;;;;;;;6.90;4.90;;;37.70;42.40;;;;;;6196984;28;20051;-78
2023/06/20 13:55:17;;;;;;;8.80;5.30;;;37.60;41.20;;;;;;6195988;28;20058;-77
2023/06/20 13:58:19;;;;;;;6.63;4.90;;;37.40;41.10;;;;;;6188174;28;20046;-78
2023/06/20 14:01:22;;;;;;;11.52;6.43;;;37.80;41.60;;;;;;6196080;28;20420;-77
2023/06/20 14:04:24;;;;;;;6.15;5.43;;;38.30;42.10;;;;;;6190868;28;20181;-78
2023/06/20 14:07:29;;;;;;;8.23;6.05;;;38.60;41.80;;;;;;6189821;28;20047;-77
2023/06/20 14:10:31;;;;;;;7.50;5.55;;;38.80;41.40;;;;;;6187628;28;20056;-78
2023/06/20 14:13:33;;;;;;;7.82;5.38;;;38.90;41.00;;;;;;6186753;28;20049;-80
2023/06/20 14:16:34;;;;;;;8.95;4.97;;;39.30;40.30;;;;;;6194336;28;20038;-81
2023/06/20 14:19:36;;;;;;;7.72;5.55;;;39.50;39.80;;;;;;6191604;28;20069;-78
2023/06/20 14:22:39;;;;;;;8.40;6.13;;;39.40;39.60;;;;;;6197815;28;20058;-77
2023/06/20 14:25:41;;;;;;;9.50;5.28;;;39.50;39.20;;;;;;6202057;28;20042;-79
2023/06/20 14:28:44;;;;;;;8.32;4.70;;;39.10;38.90;;;;;;6216041;28;20046;-77
2023/06/20 14:31:46;;;;;;;12.50;5.35;;;38.90;38.80;;;;;;6205826;28;20038;-77
2023/06/20 14:34:47;;;;;;;7.38;4.50;;;38.50;39.00;;;;;;6211936;28;20041;-78
2023/06/20 14:37:50;;;;;;;7.40;6.07;;;38.10;39.90;;;;;;6206948;28;20053;-77
2023/06/20 14:40:52;;;;;;;8.45;4.70;;;38.40;40.20;;;;;;6202349;28;20042;-77
2023/06/20 14:43:54;;;;;;;6.57;5.10;;;38.50;40.40;;;;;;6202621;28;20038;-77
2023/06/20 14:46:56;;;;;;;7.63;5.10;;;38.60;40.70;;;;;;6202095;28;20058;-77
2023/06/20 14:49:58;;;;;;;11.90;4.75;;;38.80;40.20;;;;;;6194112;28;20520;-79
2023/06/20 14:53:01;;;;;;;10.63;5.47;;;39.10;39.10;;;;;;6188390;28;20406;-77
2023/06/20 14:56:02;;;;;;;9.23;4.78;;;39.30;38.10;;;;;;6186586;28;20454;-78
2023/06/20 14:59:04;;;;;;;16.20;4.60;;;38.80;38.00;;;;;;6185486;28;20054;-77
2023/06/20 15:02:06;;;;;;;7.25;4.25;;;38.40;38.40;;;;;;6191489;28;20053;-78
2023/06/20 15:05:08;;;;;;;6.38;4.80;;;38.50;38.90;;;;;;6184096;28;20050;-77
2023/06/20 15:08:11;;;;;;;6.38;5.10;;;38.60;39.00;;;;;;6188624;28;20058;-78
2023/06/20 15:11:13;;;;;;;9.18;5.00;;;38.80;38.90;;;;;;6192895;28;20049;-77
2023/06/20 15:14:15;;;;;;;9.20;4.90;;;38.80;38.60;;;;;;6187618;28;20418;-77
2023/06/20 15:17:16;;;;;;;9.73;5.03;;;38.70;38.60;;;;;;6188289;28;20069;-77
2023/06/20 15:20:18;;;;;;;6.10;4.80;;;38.60;38.70;;;;;;6188144;28;20061;-77
2023/06/20 15:23:21;;;;;;;7.68;5.18;;;38.30;39.00;;;;;;6191571;28;20520;-76
2023/06/20 15:26:23;;;;;;;5.60;4.95;;;38.10;39.40;;;;;;6187681;28;20038;-77
2023/06/20 15:29:25;;;;;;;5.78;5.18;;;38.20;39.10;;;;;;6192965;28;20234;-78
2023/06/20 15:32:28;;;;;;;12.00;5.93;;;38.50;38.60;;;;;;6191476;28;20062;-78
2023/06/20 15:35:30;;;;;;;11.55;4.93;;;38.60;38.50;;;;;;6190865;28;20052;-78
2023/06/20 15:38:33;;;;;;;6.50;5.43;;;38.90;38.80;;;;;;6200637;28;20057;-78
2023/06/20 15:41:35;;;;;;;8.75;5.72;;;39.20;38.90;;;;;;6186212;28;20075;-76
2023/06/20 15:44:39;;;;;;;6.18;4.82;;;39.40;38.80;;;;;;6188217;28;20474;-77